Архив погоды в Кирсе

Метеограмма Кирс
Среда, 19 Июня
Время местн. Темп Ветер Видим Явления Облачность нижн/средн/верх Атм. давл. Влжн Точка росы ВНГО R Сост. почвы Tg s
Напр Скр Прв ур.ст ур.м изм
15:00 +22.5° С 2 5 20 км - облачно с прояснениями 742 756 -0.2 47% +10.5° 1.5 км - - - -
12:00 +21.6° С,С-З 1 3 20 км - облачно с прояснениями 742 757 +0.5 46% +9.5° 1.5 км - - - -
09:00 +18.9° В 1 2 20 км - облачно 741 755 +0.7 66% +12.3° 1 км - - - -
06:00 +13.4° З,Ю-З 1 2 20 км - облачно 741 756 -0.1 81% +10.2° 600 м 0 Сухая (без трещин) - -
03:00 +12.3° Ю 1 2 20 км - облачно 741 756 +0.1 82% +9.3° 600 м - - - -
00:00 +13.3° Ю 1 2 20 км - облачно 741 756 -0.1 73% +8.5° 1.5 км - - - -
Вторник, 18 Июня
Время местн. Темп Ветер Видим Явления Облачность нижн/средн/верх Атм. давл. Влжн Точка росы ВНГО R Сост. почвы Tg s
Напр Скр Прв ур.ст ур.м изм
21:00 +16.2° Ю,Ю-З 2 2 20 км - облачно 741 756 -0.2 60% +8.4° 1.5 км - - - -
18:00 +20.4° З,Ю-З 2 3 20 км - облачно 741 756 -0.5 42% +7.1° более 2.5 км 0 - - -
15:00 +21.3° З 3 5 20 км - облачно 741 756 -1.1 34% +4.8° 1.5 км - - - -
12:00 +19.8° З 4 9 20 км - переменная облачность 743 757 -0.8 31% +2.3° 1.5 км - - - -
09:00 +16.5° Ю-З 4 7 20 км - переменная облачность 743 758 +0.3 37% +1.9° более 2.5 км - - - -
06:00 +9.5° З 2 3 20 км - ясно 743 758 +0.3 69% +4.1° более 2.5 км 0 Сухая (без трещин) - -
03:00 +2.9° З 1 1 20 км - ясно 743 758 +0.3 93% +1.9° более 2.5 км - - - -
00:00 +4.5° штиль 0 0 20 км - переменная облачность 742 758 +0.4 92% +3.3° более 2.5 км - - - -
Понедельник, 17 Июня
Время местн. Темп Ветер Видим Явления Облачность нижн/средн/верх Атм. давл. Влжн Точка росы ВНГО R Сост. почвы Tg s
Напр Скр Прв ур.ст ур.м изм
21:00 +10° С 1 1 20 км - ясно 742 757 +0.8 61% +2.9° более 2.5 км - - - -
18:00 +14.6° С-З 4 10 20 км - переменная облачность 741 756 +1.4 37% +0.2° 1.5 км 0.6 - - -
15:00 +15.9° С-З 4 7 20 км небо без изменений {ливневые осадки} переменная облачность 740 755 +1.2 39% +1.9° 1.5 км - - - -
12:00 +15.1° С-З 4 8 20 км небо без изменений {ливневые осадки} облачно с прояснениями 739 753 +0.2 49% +4.6° 1 км - - - -
09:00 +13° С-З 3 4 20 км небо без изменений {ливневые осадки} облачно 738 753 -0.9 70% +7.7° 1 км - - - -
06:00 +9.9° Ю-З 3 5 20 км небо без изменений {ливневые осадки} облачно с прояснениями 739 754 -1.1 73% +5.3° 1 км 0 Влажная (без луж) - -
03:00 +7.6° Ю-З 1 3 20 км - облачно 740 756 -1.2 78% +4.1° 600 м - - - -
00:00 +6.3° Ю-З 1 2 20 км - облачно с прояснениями 742 757 -0.4 88% +4.5° 1 км - - - -
Воскресенье, 16 Июня
Время местн. Темп Ветер Видим Явления Облачность нижн/средн/верх Атм. давл. Влжн Точка росы ВНГО R Сост. почвы Tg s
Напр Скр Прв ур.ст ур.м изм
21:00 +10.7° Ю-З 1 2 20 км - облачно с прояснениями 742 757 +0.5 69% +5.3° - - - - -
18:00 +14.1° З,С-З 2 4 20 км - переменная облачность 742 757 +0.1 44% +2.1° 600 м 0 - - -
15:00 +13.5° С-З 3 5 20 км - облачно с прояснениями 742 757 0 45% +1.7° 600 м - - - -
12:00 +12.7° З,С-З 4 7 20 км - облачно 742 757 -0.1 50% +2.5° 600 м - - - -